createdAt,value
2023-06-19T00:00:27.741Z,14.95
2023-06-19T00:03:30.859Z,14.37
2023-06-19T00:06:34.212Z,12.88
2023-06-19T00:09:37.194Z,13.88
2023-06-19T00:12:40.871Z,12.93
2023-06-19T00:15:44.273Z,15.43
2023-06-19T00:18:47.945Z,15.03
2023-06-19T00:21:50.926Z,14.32
2023-06-19T00:24:54.020Z,19.75
2023-06-19T00:27:57.076Z,14.00
2023-06-19T00:31:00.045Z,13.67
2023-06-19T00:34:03.007Z,14.00
2023-06-19T00:37:06.085Z,14.15
2023-06-19T00:40:13.635Z,15.35
2023-06-19T00:43:16.398Z,13.80
2023-06-19T00:46:19.556Z,14.85
2023-06-19T00:49:22.786Z,14.30
2023-06-19T00:52:25.766Z,14.70
2023-06-19T00:55:33.302Z,13.33
2023-06-19T00:58:36.630Z,13.38
2023-06-19T01:01:39.755Z,14.48
2023-06-19T01:04:43.019Z,13.18
2023-06-19T01:08:16.246Z,13.67
2023-06-19T01:11:26.681Z,14.75
2023-06-19T01:14:39.634Z,15.10
2023-06-19T01:17:43.575Z,15.43
2023-06-19T01:20:46.760Z,16.40
2023-06-19T01:23:49.627Z,14.25
2023-06-19T01:26:53.320Z,15.00
2023-06-19T01:29:59.054Z,14.43
2023-06-19T01:33:10.089Z,14.17
2023-06-19T01:36:13.871Z,15.82
2023-06-19T01:39:19.604Z,14.65
2023-06-19T01:42:22.381Z,15.38
2023-06-19T01:45:25.627Z,16.00
2023-06-19T01:48:28.762Z,16.63
2023-06-19T01:51:31.560Z,13.32
2023-06-19T01:54:34.410Z,15.23
2023-06-19T01:57:37.674Z,17.40
2023-06-19T02:00:40.584Z,15.77
2023-06-19T02:03:43.524Z,17.02
2023-06-19T02:06:46.833Z,15.68
2023-06-19T02:09:49.757Z,15.20
2023-06-19T02:12:52.641Z,15.93
2023-06-19T02:15:55.644Z,18.17
2023-06-19T02:19:01.673Z,17.73
2023-06-19T02:22:04.843Z,13.93
2023-06-19T02:25:08.264Z,17.83
2023-06-19T02:28:12.533Z,16.70
2023-06-19T02:31:15.632Z,15.27
2023-06-19T02:34:19.002Z,18.57
2023-06-19T02:37:24.139Z,17.40
2023-06-19T02:40:27.598Z,18.27
2023-06-19T02:43:31.301Z,16.97
2023-06-19T02:46:34.786Z,15.05
2023-06-19T02:49:38.476Z,16.45
2023-06-19T02:52:41.757Z,15.25
2023-06-19T02:55:44.961Z,17.23
2023-06-19T02:58:47.904Z,20.30
2023-06-19T03:01:50.877Z,18.77
2023-06-19T03:04:53.853Z,15.95
2023-06-19T03:07:57.229Z,19.70
2023-06-19T03:11:00.922Z,18.00
2023-06-19T03:14:08.531Z,16.50
2023-06-19T03:17:13.952Z,18.08
2023-06-19T03:20:17.308Z,17.92
2023-06-19T03:23:29.083Z,18.03
2023-06-19T03:26:33.894Z,17.00
2023-06-19T03:29:39.225Z,14.85
2023-06-19T03:32:44.571Z,16.15
2023-06-19T03:35:56.851Z,18.73
2023-06-19T03:39:18.637Z,16.15
2023-06-19T03:42:23.285Z,17.67
2023-06-19T03:45:26.529Z,18.42
2023-06-19T03:48:29.603Z,16.07
2023-06-19T03:51:32.780Z,14.48
2023-06-19T03:54:36.073Z,17.58
2023-06-19T03:57:39.344Z,15.00
2023-06-19T04:00:42.744Z,16.23
2023-06-19T04:03:45.867Z,14.30
2023-06-19T04:06:49.086Z,15.13
2023-06-19T04:09:52.289Z,14.95
2023-06-19T04:12:56.973Z,14.70
2023-06-19T04:16:00.235Z,16.30
2023-06-19T04:19:04.576Z,15.43
2023-06-19T04:22:09.705Z,16.50
2023-06-19T04:25:14.526Z,15.15
2023-06-19T04:28:18.109Z,12.83
2023-06-19T04:31:21.288Z,14.97
2023-06-19T04:34:24.562Z,19.23
2023-06-19T04:37:27.939Z,18.33
2023-06-19T04:40:31.231Z,15.00
2023-06-19T04:43:35.421Z,14.60
2023-06-19T04:46:39.220Z,18.50
2023-06-19T04:49:42.266Z,14.68
2023-06-19T04:52:45.233Z,16.10
2023-06-19T04:55:48.744Z,14.98
2023-06-19T04:58:54.866Z,15.10
2023-06-19T05:01:59.122Z,14.40
2023-06-19T05:05:04.817Z,15.05
2023-06-19T05:08:07.679Z,20.73
2023-06-19T05:11:10.438Z,16.90
2023-06-19T05:14:15.517Z,24.07
2023-06-19T05:17:18.756Z,15.60
2023-06-19T05:20:21.745Z,19.08
2023-06-19T05:23:24.613Z,14.25
2023-06-19T05:26:27.855Z,13.50
2023-06-19T05:29:32.203Z,14.87
2023-06-19T05:32:35.410Z,14.32
2023-06-19T05:35:39.565Z,15.65
2023-06-19T05:38:43.543Z,12.23
2023-06-19T05:41:49.412Z,12.97
2023-06-19T05:44:53.473Z,13.48
2023-06-19T05:47:57.345Z,14.40
2023-06-19T05:51:00.976Z,14.40
2023-06-19T05:54:05.587Z,10.53
2023-06-19T05:57:08.981Z,11.10
2023-06-19T06:00:15.433Z,12.52
2023-06-19T06:03:18.820Z,11.00
2023-06-19T06:06:22.205Z,10.73
2023-06-19T06:09:25.645Z,10.27
2023-06-19T06:12:30.700Z,12.53
2023-06-19T06:15:33.779Z,12.18
2023-06-19T06:18:36.542Z,11.00
2023-06-19T06:21:39.442Z,12.68
2023-06-19T06:24:44.963Z,11.60
2023-06-19T06:27:50.745Z,14.13
2023-06-19T06:30:54.224Z,14.38
2023-06-19T06:33:58.875Z,15.00
2023-06-19T06:37:06.609Z,13.35
2023-06-19T06:40:11.055Z,12.17
2023-06-19T06:43:13.995Z,11.93
2023-06-19T06:46:17.048Z,10.98
2023-06-19T06:49:20.333Z,10.73
2023-06-19T06:52:23.741Z,11.65
2023-06-19T06:55:26.825Z,10.00
2023-06-19T06:58:30.123Z,8.67
2023-06-19T07:01:33.314Z,9.00
2023-06-19T07:04:36.274Z,8.88
2023-06-19T07:07:39.150Z,9.27
2023-06-19T07:10:42.083Z,10.23
2023-06-19T07:13:45.601Z,9.47
2023-06-19T07:16:48.689Z,9.23
2023-06-19T07:19:51.450Z,8.10
2023-06-19T07:22:55.035Z,12.15
2023-06-19T07:25:57.964Z,10.53
2023-06-19T07:29:00.997Z,9.63
2023-06-19T07:32:05.880Z,7.20
2023-06-19T07:35:09.584Z,9.43
2023-06-19T07:38:12.466Z,7.95
2023-06-19T07:41:15.587Z,8.03
2023-06-19T07:44:19.942Z,8.67
2023-06-19T07:47:23.343Z,8.20
2023-06-19T07:50:27.918Z,9.15
2023-06-19T07:53:32.089Z,10.05
2023-06-19T07:56:34.957Z,7.20
2023-06-19T07:59:38.050Z,7.90
2023-06-19T08:02:42.200Z,8.57
2023-06-19T08:05:45.258Z,8.02
2023-06-19T08:08:48.239Z,8.68
2023-06-19T08:11:51.204Z,14.30
2023-06-19T08:14:53.814Z,12.03
2023-06-19T08:17:56.493Z,9.85
2023-06-19T08:21:00.218Z,7.70
2023-06-19T08:24:03.931Z,9.75
2023-06-19T08:27:07.194Z,10.43
2023-06-19T08:30:13.036Z,7.93
2023-06-19T08:33:16.128Z,9.15
2023-06-19T08:36:18.833Z,9.90
2023-06-19T08:39:23.545Z,8.75
2023-06-19T08:42:26.703Z,7.77
2023-06-19T08:45:29.821Z,7.43
2023-06-19T08:48:35.696Z,8.85
2023-06-19T08:51:39.105Z,9.52
2023-06-19T08:54:46.683Z,8.10
2023-06-19T08:57:51.803Z,8.03
2023-06-19T09:00:54.846Z,8.23
2023-06-19T09:03:58.556Z,11.35
2023-06-19T09:07:04.434Z,6.97
2023-06-19T09:10:20.237Z,8.70
2023-06-19T09:13:24.372Z,9.17
2023-06-19T09:16:38.462Z,13.70
2023-06-19T09:19:52.487Z,13.65
2023-06-19T09:22:59.893Z,13.20
2023-06-19T09:26:02.837Z,10.10
2023-06-19T09:29:20.266Z,6.27
2023-06-19T09:33:18.379Z,14.30
2023-06-19T09:36:05.463Z,9.00
2023-06-19T09:39:09.408Z,10.57
2023-06-19T09:42:17.644Z,7.93
2023-06-19T09:45:23.744Z,7.93
2023-06-19T09:48:31.829Z,6.57
2023-06-19T09:51:39.218Z,9.23
2023-06-19T09:54:45.106Z,9.15
2023-06-19T09:57:49.879Z,6.03
2023-06-19T10:00:55.996Z,6.30
2023-06-19T10:04:07.859Z,9.63
2023-06-19T10:07:18.211Z,13.23
2023-06-19T10:10:27.790Z,6.80
2023-06-19T10:13:37.725Z,7.28
2023-06-19T10:16:43.420Z,5.13
2023-06-19T10:19:54.327Z,6.30
2023-06-19T10:23:09.366Z,5.45
2023-06-19T10:26:17.202Z,5.78
2023-06-19T10:29:20.364Z,5.13
2023-06-19T10:32:23.723Z,5.47
2023-06-19T10:35:26.636Z,4.40
2023-06-19T10:38:30.848Z,4.95
2023-06-19T10:41:34.358Z,5.25
2023-06-19T10:44:43.395Z,4.80
2023-06-19T10:47:46.342Z,6.80
2023-06-19T10:50:50.137Z,6.23
2023-06-19T10:53:55.201Z,5.75
2023-06-19T10:56:58.992Z,4.20
2023-06-19T11:00:02.074Z,5.68
2023-06-19T11:03:05.356Z,6.40
2023-06-19T11:06:08.400Z,5.00
2023-06-19T11:09:12.833Z,4.28
2023-06-19T11:12:24.729Z,3.95
2023-06-19T11:15:32.444Z,4.80
2023-06-19T11:18:35.777Z,4.00
2023-06-19T11:21:41.915Z,4.00
2023-06-19T11:24:53.640Z,6.07
2023-06-19T11:27:59.724Z,4.20
2023-06-19T11:31:05.620Z,4.90
2023-06-19T11:34:08.801Z,4.70
2023-06-19T11:37:19.403Z,4.27
2023-06-19T11:40:24.972Z,4.88
2023-06-19T11:43:32.133Z,6.35
2023-06-19T11:46:35.695Z,4.63
2023-06-19T11:49:39.593Z,4.80
2023-06-19T11:52:47.686Z,5.33
2023-06-19T11:55:51.936Z,5.70
2023-06-19T11:58:54.935Z,4.90
2023-06-19T12:01:59.959Z,7.47
2023-06-19T12:05:02.874Z,6.17
2023-06-19T12:08:07.881Z,6.70
2023-06-19T12:11:14.919Z,5.40
2023-06-19T12:14:20.663Z,5.65
2023-06-19T12:17:23.506Z,4.75
2023-06-19T12:20:46.685Z,4.70
2023-06-19T12:23:49.678Z,4.33
2023-06-19T12:26:52.461Z,4.78
2023-06-19T12:29:57.320Z,4.90
2023-06-19T12:33:00.203Z,5.65
2023-06-19T12:36:03.328Z,4.27
2023-06-19T12:39:14.563Z,4.40
2023-06-19T12:42:17.917Z,4.03
2023-06-19T12:45:20.746Z,4.10
2023-06-19T12:48:23.833Z,5.25
2023-06-19T12:51:26.662Z,5.27
2023-06-19T12:54:29.895Z,3.83
2023-06-19T12:57:32.716Z,3.78
2023-06-19T13:00:35.682Z,3.78
2023-06-19T13:03:38.752Z,12.88
2023-06-19T13:06:41.856Z,7.43
2023-06-19T13:09:44.656Z,6.70
2023-06-19T13:12:47.379Z,7.38
2023-06-19T13:15:50.270Z,4.32
2023-06-19T13:18:53.625Z,4.72
2023-06-19T13:21:56.697Z,4.70
2023-06-19T13:24:59.528Z,5.10
2023-06-19T13:28:02.243Z,5.30
2023-06-19T13:31:05.307Z,4.25
2023-06-19T13:34:08.456Z,5.22
2023-06-19T13:37:11.325Z,4.53
2023-06-19T13:40:14.441Z,9.60
2023-06-19T13:43:17.804Z,6.80
2023-06-19T13:46:23.221Z,5.43
2023-06-19T13:49:26.014Z,4.10
2023-06-19T13:52:32.124Z,3.57
2023-06-19T13:55:34.951Z,4.20
2023-06-19T13:58:38.004Z,4.65
2023-06-19T14:01:44.451Z,3.97
2023-06-19T14:04:47.446Z,4.07
2023-06-19T14:07:51.012Z,4.03
2023-06-19T14:10:54.600Z,5.37
2023-06-19T14:13:58.096Z,5.68
2023-06-19T14:17:01.524Z,7.05
2023-06-19T14:20:06.869Z,4.53
2023-06-19T14:23:09.931Z,4.10
2023-06-19T14:26:13.110Z,4.60
2023-06-19T14:29:17.120Z,4.05
2023-06-19T14:32:20.185Z,3.72
2023-06-19T14:35:23.263Z,3.92
2023-06-19T14:38:29.023Z,4.60
2023-06-19T14:41:31.919Z,4.27
2023-06-19T14:44:34.659Z,3.90
2023-06-19T14:47:37.787Z,4.55
2023-06-19T14:50:40.682Z,4.95
2023-06-19T14:53:43.777Z,4.70
2023-06-19T14:56:49.428Z,5.00
2023-06-19T14:59:52.384Z,4.10
2023-06-19T15:02:55.447Z,4.47
2023-06-19T15:05:58.756Z,4.10
2023-06-19T15:09:03.196Z,4.70
2023-06-19T15:12:08.370Z,4.43
2023-06-19T15:15:11.658Z,5.45
2023-06-19T15:18:14.646Z,6.45
2023-06-19T15:21:17.712Z,5.25
2023-06-19T15:24:20.715Z,5.27
2023-06-19T15:27:23.513Z,5.27
2023-06-19T15:30:26.605Z,5.95
2023-06-19T15:33:30.405Z,5.50
2023-06-19T15:36:33.351Z,7.47
2023-06-19T15:39:36.218Z,4.73
2023-06-19T15:42:39.125Z,5.20
2023-06-19T15:45:42.437Z,5.78
2023-06-19T15:48:45.351Z,4.35
2023-06-19T15:51:48.469Z,4.93
2023-06-19T15:54:51.220Z,5.73
2023-06-19T15:57:54.193Z,4.53
2023-06-19T16:00:57.569Z,4.82
2023-06-19T16:04:01.952Z,5.53
2023-06-19T16:07:05.136Z,4.57
2023-06-19T16:10:08.812Z,4.90
2023-06-19T16:13:12.091Z,4.70
2023-06-19T16:16:14.900Z,5.65
2023-06-19T16:19:19.868Z,4.78
2023-06-19T16:22:24.215Z,6.07
2023-06-19T16:25:27.155Z,4.50
2023-06-19T16:28:30.785Z,7.00
2023-06-19T16:31:33.721Z,5.35
2023-06-19T16:34:36.528Z,5.55
2023-06-19T16:37:39.798Z,5.70
2023-06-19T16:40:42.741Z,5.03
2023-06-19T16:43:45.543Z,4.57
2023-06-19T16:46:49.806Z,4.78
2023-06-19T16:49:52.915Z,6.93
2023-06-19T16:52:56.306Z,7.28
2023-06-19T16:55:59.446Z,4.80
2023-06-19T16:59:03.144Z,5.47
2023-06-19T17:02:06.397Z,4.78
2023-06-19T17:05:09.929Z,5.07
2023-06-19T17:08:13.315Z,5.15
2023-06-19T17:11:20.956Z,4.57
2023-06-19T17:14:24.480Z,5.43
2023-06-19T17:17:28.755Z,4.80
2023-06-19T17:20:31.961Z,6.00
2023-06-19T17:23:37.493Z,5.22
2023-06-19T17:26:40.871Z,5.07
2023-06-19T17:29:44.262Z,6.60
2023-06-19T17:32:47.704Z,6.10
2023-06-19T17:35:50.572Z,6.07
2023-06-19T17:38:53.598Z,5.90
2023-06-19T17:41:56.673Z,4.87
2023-06-19T17:45:00.874Z,5.53
2023-06-19T17:48:03.922Z,6.70
2023-06-19T17:51:07.016Z,9.05
2023-06-19T17:54:09.967Z,5.45
2023-06-19T17:57:12.860Z,6.03
2023-06-19T18:00:16.174Z,7.17
2023-06-19T18:03:19.208Z,5.97
2023-06-19T18:06:24.169Z,5.45
2023-06-19T18:09:27.373Z,6.32
2023-06-19T18:12:30.142Z,6.40
2023-06-19T18:15:33.563Z,6.97
2023-06-19T18:18:36.747Z,5.10
2023-06-19T18:21:40.027Z,5.55
2023-06-19T18:24:43.466Z,6.00
2023-06-19T18:27:47.270Z,7.53
2023-06-19T18:30:53.557Z,6.63
2023-06-19T18:33:57.503Z,6.32
2023-06-19T18:37:00.682Z,6.85
2023-06-19T18:40:04.427Z,9.23
2023-06-19T18:43:07.561Z,7.50
2023-06-19T18:46:10.727Z,6.90
2023-06-19T18:49:13.966Z,6.78
2023-06-19T18:52:17.790Z,6.93
2023-06-19T18:55:20.863Z,6.13
2023-06-19T18:58:24.035Z,7.20
2023-06-19T19:01:27.229Z,8.57
2023-06-19T19:04:30.321Z,7.20
2023-06-19T19:07:33.114Z,8.52
2023-06-19T19:10:35.865Z,6.95
2023-06-19T19:13:38.544Z,7.53
2023-06-19T19:16:41.526Z,10.93
2023-06-19T19:19:44.538Z,9.02
2023-06-19T19:22:47.591Z,6.85
2023-06-19T19:25:50.566Z,5.93
2023-06-19T19:28:53.621Z,6.43
2023-06-19T19:31:56.470Z,6.23
2023-06-19T19:34:59.921Z,6.60
2023-06-19T19:38:03.675Z,6.55
2023-06-19T19:41:06.688Z,8.30
2023-06-19T19:44:09.617Z,8.57
2023-06-19T19:47:12.508Z,9.30
2023-06-19T19:50:15.979Z,6.18
2023-06-19T19:53:18.947Z,7.03
2023-06-19T19:56:22.296Z,6.45
2023-06-19T19:59:25.224Z,8.03
2023-06-19T20:02:28.299Z,7.90
2023-06-19T20:05:31.195Z,6.70
2023-06-19T20:08:33.981Z,9.07
2023-06-19T20:11:36.880Z,10.05
2023-06-19T20:14:40.513Z,6.73
2023-06-19T20:17:43.621Z,8.97
2023-06-19T20:20:46.521Z,7.05
2023-06-19T20:23:49.252Z,7.90
2023-06-19T20:26:51.985Z,6.05
2023-06-19T20:29:55.144Z,5.97
2023-06-19T20:32:58.045Z,6.50
2023-06-19T20:36:03.433Z,10.48
2023-06-19T20:39:08.957Z,6.45
2023-06-19T20:42:11.806Z,6.20
2023-06-19T20:45:15.415Z,6.67
2023-06-19T20:48:18.265Z,6.13
2023-06-19T20:51:22.107Z,6.32
2023-06-19T20:54:24.822Z,6.47
2023-06-19T20:57:27.442Z,6.68
2023-06-19T21:00:30.253Z,6.57
2023-06-19T21:03:32.962Z,8.50
2023-06-19T21:06:35.814Z,7.97
2023-06-19T21:09:38.654Z,6.32
2023-06-19T21:12:41.725Z,7.75
2023-06-19T21:15:44.563Z,8.63
2023-06-19T21:18:47.537Z,8.83
2023-06-19T21:21:50.305Z,6.88
2023-06-19T21:24:53.180Z,6.80
2023-06-19T21:27:56.156Z,7.07
2023-06-19T21:30:59.123Z,7.07
2023-06-19T21:34:02.096Z,6.63
2023-06-19T21:37:05.381Z,7.03
2023-06-19T21:40:08.666Z,6.97
2023-06-19T21:43:11.634Z,11.57
2023-06-19T21:46:14.966Z,5.87
2023-06-19T21:49:18.080Z,6.83
2023-06-19T21:52:21.784Z,6.43
2023-06-19T21:55:25.057Z,8.73
2023-06-19T21:58:29.158Z,6.82
2023-06-19T22:01:32.129Z,7.80
2023-06-19T22:04:35.101Z,6.37
2023-06-19T22:07:38.285Z,7.78
2023-06-19T22:10:41.884Z,7.95
2023-06-19T22:13:45.339Z,8.55
2023-06-19T22:16:48.690Z,8.73
2023-06-19T22:19:51.607Z,6.83
2023-06-19T22:22:54.717Z,7.35
2023-06-19T22:25:57.786Z,8.10
2023-06-19T22:29:00.958Z,7.20
2023-06-19T22:32:04.249Z,7.93
2023-06-19T22:35:08.626Z,8.60
2023-06-19T22:38:12.291Z,7.97
2023-06-19T22:41:17.850Z,7.93
2023-06-19T22:44:21.020Z,7.95
2023-06-19T22:47:24.114Z,8.43
2023-06-19T22:50:27.252Z,8.60
2023-06-19T22:53:30.227Z,10.23
2023-06-19T22:56:34.238Z,8.68
2023-06-19T22:59:37.338Z,10.70
2023-06-19T23:02:44.879Z,10.47
2023-06-19T23:05:48.508Z,8.10
2023-06-19T23:08:51.663Z,8.43
2023-06-19T23:11:55.974Z,8.90
2023-06-19T23:14:59.230Z,9.25
2023-06-19T23:18:02.720Z,8.60
2023-06-19T23:21:06.514Z,9.43
2023-06-19T23:24:11.932Z,8.35
2023-06-19T23:27:17.275Z,8.43
2023-06-19T23:30:20.484Z,8.57
2023-06-19T23:33:27.021Z,7.80
2023-06-19T23:36:30.510Z,7.83
2023-06-19T23:39:33.896Z,8.25
2023-06-19T23:42:37.483Z,9.00
2023-06-19T23:45:40.853Z,8.52
2023-06-19T23:48:44.026Z,9.57
2023-06-19T23:51:47.626Z,8.03
2023-06-19T23:54:50.798Z,8.98
2023-06-19T23:57:55.602Z,9.55
